Time;durP1;ratioP1;P1;durP2;ratioP2;P2;SDS_P1;SDS_P2;PMS_P1;PMS_P2;Temp;Humidity;BMP_temperature;BMP_pressure;BME280_temperature;BME280_humidity;BME280_pressure;Samples;Min_cycle;Max_cycle;Signal;HPM_P1;HPM_P2
2023/03/01 00:01:15;;;;;;;11.98;3.75;;;;;;;;;;5073159;28;20037;-50
2023/03/01 00:03:41;;;;;;;11.07;7.07;;;;;;;;;;5073239;28;20341;-50
2023/03/01 00:06:06;;;;;;;6.53;4.65;;;;;;;;;;5072841;28;20041;-49
2023/03/01 00:08:33;;;;;;;8.05;3.45;;;;;;;;;;5072815;28;20024;-49
2023/03/01 00:11:04;;;;;;;4.15;2.35;;;;;;;;;;5073119;28;20451;-49
2023/03/01 00:13:29;;;;;;;4.05;2.88;;;;;;;;;;5072757;28;20050;-49
2023/03/01 00:15:55;;;;;;;7.38;4.22;;;;;;;;;;5071376;28;20494;-49
2023/03/01 00:18:22;;;;;;;13.52;5.20;;;;;;;;;;5072566;28;20077;-50
2023/03/01 00:20:51;;;;;;;7.70;4.95;;;;;;;;;;5072713;28;20032;-49
2023/03/01 00:23:17;;;;;;;8.25;4.32;;;;;;;;;;5072404;28;20067;-49
2023/03/01 00:25:42;;;;;;;6.68;4.78;;;;;;;;;;5072538;28;20051;-49
2023/03/01 00:28:08;;;;;;;6.85;4.85;;;;;;;;;;5072716;28;20111;-49
2023/03/01 00:30:33;;;;;;;9.35;5.43;;;;;;;;;;5054486;28;20374;-49
2023/03/01 00:32:58;;;;;;;9.85;5.35;;;;;;;;;;5071095;28;20087;-50
2023/03/01 00:35:24;;;;;;;7.88;4.65;;;;;;;;;;5070788;28;20105;-49
2023/03/01 00:37:57;;;;;;;1.00;0.85;;;;;;;;;;5070906;28;20089;-50
2023/03/01 00:40:29;;;;;;;10.50;5.43;;;;;;;;;;5072423;28;20032;-49
2023/03/01 00:42:54;;;;;;;6.18;3.90;;;;;;;;;;5072199;28;20028;-50
2023/03/01 00:45:20;;;;;;;6.85;3.75;;;;;;;;;;5072565;28;20021;-49
2023/03/01 00:47:46;;;;;;;9.57;4.22;;;;;;;;;;5071349;28;20048;-49
2023/03/01 00:50:11;;;;;;;2.22;1.40;;;;;;;;;;5072418;28;20020;-50
2023/03/01 00:52:37;;;;;;;3.08;2.70;;;;;;;;;;5071148;28;20123;-49
2023/03/01 00:55:03;;;;;;;8.98;5.13;;;;;;;;;;5072677;28;20032;-49
2023/03/01 00:57:28;;;;;;;4.95;3.80;;;;;;;;;;5072421;28;20536;-54
2023/03/01 00:59:53;;;;;;;9.00;4.15;;;;;;;;;;5072343;28;20066;-50
2023/03/01 01:02:19;;;;;;;5.70;4.38;;;;;;;;;;5070859;28;20040;-49
2023/03/01 01:04:45;;;;;;;3.47;2.42;;;;;;;;;;5070245;28;20065;-48
2023/03/01 01:07:10;;;;;;;2.10;1.98;;;;;;;;;;5072202;28;20055;-49
2023/03/01 01:09:37;;;;;;;8.70;4.28;;;;;;;;;;5072543;28;20032;-49
2023/03/01 01:12:03;;;;;;;6.35;3.63;;;;;;;;;;5070914;28;20605;-49
2023/03/01 01:14:28;;;;;;;9.40;5.05;;;;;;;;;;5071982;28;20062;-49
2023/03/01 01:16:54;;;;;;;6.95;4.53;;;;;;;;;;5070940;28;20032;-49
2023/03/01 01:19:19;;;;;;;12.75;5.35;;;;;;;;;;5070691;28;20107;-49
2023/03/01 01:21:44;;;;;;;9.93;3.75;;;;;;;;;;5072072;28;20111;-49
2023/03/01 01:24:10;;;;;;;9.10;4.63;;;;;;;;;;5070696;28;20483;-49
2023/03/01 01:26:36;;;;;;;5.97;3.10;;;;;;;;;;5070720;28;20028;-49
2023/03/01 01:29:02;;;;;;;4.35;3.10;;;;;;;;;;5072043;28;20024;-49
2023/03/01 01:31:28;;;;;;;6.70;3.10;;;;;;;;;;5071973;28;20103;-49
2023/03/01 01:33:54;;;;;;;7.35;3.67;;;;;;;;;;5070408;28;20132;-49
2023/03/01 01:36:19;;;;;;;2.20;1.92;;;;;;;;;;5072071;28;20082;-50
2023/03/01 01:38:44;;;;;;;2.67;1.67;;;;;;;;;;5072185;28;20402;-49
2023/03/01 01:41:13;;;;;;;3.92;2.72;;;;;;;;;;5071755;28;20074;-49
2023/03/01 01:43:49;;;;;;;6.18;3.58;;;;;;;;;;5071883;28;20023;-49
2023/03/01 01:46:31;;;;;;;6.72;3.40;;;;;;;;;;5071804;28;20667;-49
2023/03/01 01:49:17;;;;;;;7.47;3.75;;;;;;;;;;5071642;28;20024;-49
2023/03/01 01:51:43;;;;;;;3.70;3.30;;;;;;;;;;5070562;28;20040;-49
2023/03/01 01:54:12;;;;;;;10.18;5.03;;;;;;;;;;5070801;28;20038;-49
2023/03/01 01:56:40;;;;;;;7.20;4.07;;;;;;;;;;5070542;28;20047;-49
2023/03/01 01:59:05;;;;;;;6.32;4.50;;;;;;;;;;5070504;28;20021;-49
2023/03/01 02:01:31;;;;;;;7.25;4.07;;;;;;;;;;5070454;28;20028;-49
2023/03/01 02:03:56;;;;;;;5.75;2.95;;;;;;;;;;5070423;28;20340;-48
2023/03/01 02:06:28;;;;;;;7.00;3.78;;;;;;;;;;5070368;28;20038;-49
2023/03/01 02:08:56;;;;;;;3.08;2.10;;;;;;;;;;5069133;28;20024;-49
2023/03/01 02:11:21;;;;;;;1.25;0.93;;;;;;;;;;5068894;28;20025;-49
2023/03/01 02:13:48;;;;;;;5.00;4.30;;;;;;;;;;5070475;28;20501;-49
2023/03/01 02:16:15;;;;;;;5.07;2.58;;;;;;;;;;5070743;28;20505;-49
2023/03/01 02:18:41;;;;;;;7.22;3.67;;;;;;;;;;5072938;28;20059;-49
2023/03/01 02:21:06;;;;;;;1.48;1.38;;;;;;;;;;5074238;28;20031;-49
2023/03/01 02:23:32;;;;;;;10.55;3.72;;;;;;;;;;5074110;28;20036;-49
2023/03/01 02:26:27;;;;;;;7.43;4.55;;;;;;;;;;5072925;28;20119;-49
2023/03/01 02:28:53;;;;;;;9.10;3.92;;;;;;;;;;5060947;28;20037;-49
2023/03/01 02:34:05;;;;;;;5.97;3.10;;;;;;;;;;5073980;28;20048;-49
2023/03/01 02:36:34;;;;;;;2.65;1.65;;;;;;;;;;5074021;28;20036;-50
2023/03/01 02:39:01;;;;;;;6.95;3.38;;;;;;;;;;5073874;28;20352;-49
2023/03/01 02:41:28;;;;;;;4.75;3.55;;;;;;;;;;5072484;28;20031;-50
2023/03/01 02:43:53;;;;;;;7.53;3.85;;;;;;;;;;5074210;28;20048;-49
2023/03/01 02:46:23;;;;;;;4.68;3.25;;;;;;;;;;5072302;28;20483;-49
2023/03/01 02:48:50;;;;;;;7.05;3.55;;;;;;;;;;5074012;28;20036;-49
2023/03/01 02:51:27;;;;;;;5.25;3.78;;;;;;;;;;5072217;28;20017;-49
2023/03/01 02:53:59;;;;;;;8.57;3.45;;;;;;;;;;5073602;28;20036;-49
2023/03/01 02:56:25;;;;;;;7.53;3.97;;;;;;;;;;5073489;28;20048;-49
2023/03/01 02:58:51;;;;;;;4.75;2.38;;;;;;;;;;5072256;28;20024;-49
2023/03/01 03:01:18;;;;;;;7.32;4.47;;;;;;;;;;5071945;28;20398;-49
2023/03/01 03:03:44;;;;;;;7.22;3.58;;;;;;;;;;5072084;28;20103;-49
2023/03/01 03:06:10;;;;;;;8.50;3.17;;;;;;;;;;5072122;28;20033;-52
2023/03/01 03:08:35;;;;;;;2.38;1.85;;;;;;;;;;5072167;28;20107;-49
2023/03/01 03:11:00;;;;;;;5.57;2.22;;;;;;;;;;5072366;28;20479;-49
2023/03/01 03:13:28;;;;;;;2.10;2.00;;;;;;;;;;5071814;28;20474;-49
2023/03/01 03:15:55;;;;;;;1.25;1.15;;;;;;;;;;5073415;28;20066;-49
2023/03/01 03:18:21;;;;;;;5.82;4.07;;;;;;;;;;5071786;28;20012;-49
2023/03/01 03:20:47;;;;;;;9.77;4.72;;;;;;;;;;5073278;28;20032;-49
2023/03/01 03:23:12;;;;;;;0.70;0.70;;;;;;;;;;5073412;28;20032;-49
2023/03/01 03:25:38;;;;;;;4.68;2.25;;;;;;;;;;5072995;28;20043;-49
2023/03/01 03:28:09;;;;;;;5.55;1.70;;;;;;;;;;5071942;28;20534;-49
2023/03/01 03:30:36;;;;;;;9.55;4.30;;;;;;;;;;5072952;28;20489;-49
2023/03/01 03:33:01;;;;;;;2.60;1.92;;;;;;;;;;5071652;28;20426;-49
2023/03/01 03:35:31;;;;;;;14.35;7.80;;;;;;;;;;5072744;28;20052;-49
2023/03/01 03:38:01;;;;;;;8.35;4.80;;;;;;;;;;5071549;28;20048;-49
2023/03/01 03:40:28;;;;;;;7.38;4.15;;;;;;;;;;5072897;28;20115;-50
2023/03/01 03:42:53;;;;;;;3.97;3.15;;;;;;;;;;5072694;28;20028;-49
2023/03/01 03:45:19;;;;;;;2.13;2.03;;;;;;;;;;5071318;28;20041;-49
2023/03/01 03:47:44;;;;;;;4.50;2.10;;;;;;;;;;5072610;28;20112;-49
2023/03/01 03:50:11;;;;;;;7.93;4.93;;;;;;;;;;5072300;28;20041;-49
2023/03/01 03:52:36;;;;;;;9.70;5.30;;;;;;;;;;5072713;28;20025;-51
2023/03/01 03:55:01;;;;;;;5.53;2.53;;;;;;;;;;5072543;28;20041;-49
2023/03/01 03:57:27;;;;;;;2.40;1.60;;;;;;;;;;5072393;28;20024;-49
2023/03/01 03:59:52;;;;;;;16.95;11.13;;;;;;;;;;5072649;28;20471;-50
2023/03/01 04:02:21;;;;;;;3.08;2.78;;;;;;;;;;5072171;28;20032;-50
2023/03/01 04:04:50;;;;;;;8.85;3.47;;;;;;;;;;5072568;28;20032;-49
2023/03/01 04:07:16;;;;;;;10.20;6.07;;;;;;;;;;5072507;28;20427;-49
2023/03/01 04:09:42;;;;;;;3.55;3.22;;;;;;;;;;5072587;28;20059;-49
2023/03/01 04:12:08;;;;;;;10.15;5.45;;;;;;;;;;5072031;28;20020;-49
2023/03/01 04:14:33;;;;;;;4.78;1.17;;;;;;;;;;5072301;28;20107;-49
2023/03/01 04:16:58;;;;;;;4.70;3.42;;;;;;;;;;5072060;28;20031;-50
2023/03/01 04:19:24;;;;;;;3.85;2.45;;;;;;;;;;5070694;28;20020;-49
2023/03/01 04:21:49;;;;;;;8.80;5.65;;;;;;;;;;5072148;28;20108;-50
2023/03/01 04:24:14;;;;;;;5.15;2.42;;;;;;;;;;5071793;28;20067;-51
2023/03/01 04:26:40;;;;;;;3.25;2.97;;;;;;;;;;5071830;28;20021;-49
2023/03/01 04:29:05;;;;;;;7.75;4.35;;;;;;;;;;5071773;28;20037;-49
2023/03/01 04:31:31;;;;;;;10.57;6.07;;;;;;;;;;5071831;28;20024;-50
2023/03/01 04:33:56;;;;;;;10.60;7.03;;;;;;;;;;5071549;28;20056;-50
2023/03/01 04:36:23;;;;;;;2.88;1.63;;;;;;;;;;5070373;28;20480;-49
2023/03/01 04:38:49;;;;;;;10.40;3.47;;;;;;;;;;5071469;28;20025;-49
2023/03/01 04:41:16;;;;;;;7.30;4.03;;;;;;;;;;5071476;28;20507;-50
2023/03/01 04:43:41;;;;;;;4.35;3.42;;;;;;;;;;5071890;28;20035;-49
2023/03/01 04:46:09;;;;;;;5.97;3.67;;;;;;;;;;5071705;28;20032;-51
2023/03/01 04:48:37;;;;;;;4.60;2.60;;;;;;;;;;5071598;28;20064;-49
2023/03/01 04:51:03;;;;;;;8.98;5.00;;;;;;;;;;5071637;28;20054;-50
2023/03/01 04:53:29;;;;;;;8.60;5.95;;;;;;;;;;5071523;28;20479;-50
2023/03/01 04:55:55;;;;;;;4.68;2.40;;;;;;;;;;5071408;28;20028;-50
2023/03/01 04:58:21;;;;;;;14.65;8.60;;;;;;;;;;5071344;28;20059;-50
2023/03/01 05:00:46;;;;;;;6.35;3.30;;;;;;;;;;5071421;28;20035;-50
2023/03/01 05:03:12;;;;;;;5.90;4.72;;;;;;;;;;5071146;28;20029;-49
2023/03/01 05:05:38;;;;;;;6.75;3.40;;;;;;;;;;5071236;28;20097;-49
2023/03/01 05:08:05;;;;;;;13.77;7.25;;;;;;;;;;5070974;28;20056;-49
2023/03/01 05:10:31;;;;;;;9.02;4.95;;;;;;;;;;5071004;28;20024;-49
2023/03/01 05:12:58;;;;;;;4.20;2.40;;;;;;;;;;5071360;28;20028;-50
2023/03/01 05:15:27;;;;;;;4.40;2.78;;;;;;;;;;5069576;28;20024;-49
2023/03/01 05:17:54;;;;;;;2.38;2.25;;;;;;;;;;5071140;28;20550;-50
2023/03/01 05:20:22;;;;;;;9.40;2.72;;;;;;;;;;5070800;28;20070;-49
2023/03/01 05:22:48;;;;;;;10.88;5.95;;;;;;;;;;5070818;28;20040;-50
2023/03/01 05:25:13;;;;;;;8.02;3.63;;;;;;;;;;5071158;28;20020;-49
2023/03/01 05:27:39;;;;;;;0.80;0.80;;;;;;;;;;5070997;28;20371;-49
2023/03/01 05:30:13;;;;;;;2.15;1.75;;;;;;;;;;5070937;28;20103;-49
2023/03/01 05:32:39;;;;;;;2.10;1.70;;;;;;;;;;5070819;28;20515;-49
2023/03/01 05:35:05;;;;;;;7.78;3.25;;;;;;;;;;5070764;28;20059;-50
2023/03/01 05:37:31;;;;;;;6.03;2.25;;;;;;;;;;5070647;28;20033;-50
2023/03/01 05:39:56;;;;;;;2.45;1.48;;;;;;;;;;5069079;28;20054;-49
2023/03/01 05:42:21;;;;;;;7.57;5.38;;;;;;;;;;5070820;28;20028;-50
2023/03/01 05:44:47;;;;;;;7.22;3.72;;;;;;;;;;5070671;28;20051;-49
2023/03/01 05:47:12;;;;;;;7.63;2.65;;;;;;;;;;5070661;28;20028;-53
2023/03/01 05:49:37;;;;;;;2.25;2.05;;;;;;;;;;5070900;28;20035;-49
2023/03/01 05:52:03;;;;;;;9.02;4.53;;;;;;;;;;5070160;28;20744;-49
2023/03/01 05:54:28;;;;;;;5.57;2.92;;;;;;;;;;5070699;28;20458;-49
2023/03/01 05:56:54;;;;;;;8.00;4.25;;;;;;;;;;5071021;28;20032;-50
2023/03/01 05:59:19;;;;;;;0.52;0.52;;;;;;;;;;5070731;28;20398;-50
2023/03/01 06:01:45;;;;;;;16.38;8.10;;;;;;;;;;5070492;28;20043;-49
2023/03/01 06:04:10;;;;;;;7.05;3.72;;;;;;;;;;5070344;28;20019;-50
2023/03/01 06:06:39;;;;;;;11.30;6.07;;;;;;;;;;5070379;28;20484;-50
2023/03/01 06:09:07;;;;;;;16.42;7.38;;;;;;;;;;5070495;28;20104;-50
2023/03/01 06:11:33;;;;;;;14.05;4.95;;;;;;;;;;5070156;28;20434;-50
2023/03/01 06:13:59;;;;;;;3.63;3.05;;;;;;;;;;5070513;28;20028;-49
2023/03/01 06:16:24;;;;;;;5.80;3.28;;;;;;;;;;5070519;28;20122;-49
2023/03/01 06:18:49;;;;;;;7.68;3.97;;;;;;;;;;5070520;28;20416;-49
2023/03/01 06:21:15;;;;;;;6.80;4.00;;;;;;;;;;5070382;28;20486;-49
2023/03/01 06:23:40;;;;;;;10.15;5.03;;;;;;;;;;5070563;28;20025;-50
2023/03/01 06:26:07;;;;;;;12.05;6.57;;;;;;;;;;5070356;28;20123;-50
2023/03/01 06:28:32;;;;;;;3.22;2.92;;;;;;;;;;5070524;28;20056;-49
2023/03/01 06:30:57;;;;;;;7.00;3.42;;;;;;;;;;5070258;28;20052;-49
2023/03/01 06:33:24;;;;;;;1.55;1.10;;;;;;;;;;5070114;28;20017;-49
2023/03/01 06:35:49;;;;;;;12.38;4.30;;;;;;;;;;5069928;28;20055;-49
2023/03/01 06:38:17;;;;;;;5.07;3.47;;;;;;;;;;5070212;28;20036;-49
2023/03/01 06:40:42;;;;;;;3.10;2.25;;;;;;;;;;5070504;28;20032;-49
2023/03/01 06:43:08;;;;;;;9.02;2.97;;;;;;;;;;5070195;28;20016;-50
2023/03/01 06:45:33;;;;;;;8.43;4.63;;;;;;;;;;5069947;28;20078;-49
2023/03/01 06:48:03;;;;;;;4.93;4.32;;;;;;;;;;5051827;28;20055;-49
2023/03/01 06:50:28;;;;;;;13.27;3.55;;;;;;;;;;5070126;28;20148;-50
2023/03/01 06:52:57;;;;;;;5.80;4.35;;;;;;;;;;5070349;28;20107;-49
2023/03/01 06:55:23;;;;;;;1.90;1.45;;;;;;;;;;5069920;28;20503;-49
2023/03/01 06:57:48;;;;;;;6.13;3.95;;;;;;;;;;5069851;28;20031;-49
2023/03/01 07:00:14;;;;;;;4.95;3.70;;;;;;;;;;5069945;28;20131;-49
2023/03/01 07:02:39;;;;;;;14.45;6.63;;;;;;;;;;5070761;28;20020;-49
2023/03/01 07:05:05;;;;;;;12.70;7.70;;;;;;;;;;5073760;28;20028;-50
2023/03/01 07:07:30;;;;;;;7.65;4.65;;;;;;;;;;5073337;28;20174;-49
2023/03/01 07:09:56;;;;;;;14.10;7.43;;;;;;;;;;5073740;28;20115;-50
2023/03/01 07:12:21;;;;;;;8.75;3.47;;;;;;;;;;5073243;28;20485;-50
2023/03/01 07:14:47;;;;;;;11.95;6.85;;;;;;;;;;5073146;28;20119;-50
2023/03/01 07:17:12;;;;;;;7.47;4.65;;;;;;;;;;5073482;28;20040;-49
2023/03/01 07:19:37;;;;;;;0.98;0.98;;;;;;;;;;5073322;28;20470;-49
2023/03/01 07:22:04;;;;;;;9.48;4.88;;;;;;;;;;5073225;28;20827;-49
2023/03/01 07:24:29;;;;;;;7.00;3.88;;;;;;;;;;5073219;28;20032;-49
2023/03/01 07:26:55;;;;;;;16.05;7.75;;;;;;;;;;5072865;28;20024;-50
2023/03/01 07:29:20;;;;;;;6.07;2.92;;;;;;;;;;5073329;28;20036;-49
2023/03/01 07:31:45;;;;;;;12.32;4.60;;;;;;;;;;5072794;28;20371;-49
2023/03/01 07:34:11;;;;;;;8.02;5.72;;;;;;;;;;5072752;28;20051;-50
2023/03/01 07:36:37;;;;;;;7.20;5.82;;;;;;;;;;5072920;28;20445;-49
2023/03/01 07:39:03;;;;;;;17.58;8.45;;;;;;;;;;5073103;28;20036;-49
2023/03/01 07:41:28;;;;;;;11.63;5.28;;;;;;;;;;5072716;28;20020;-49
2023/03/01 07:43:54;;;;;;;4.20;2.92;;;;;;;;;;5072816;28;20029;-54
2023/03/01 07:46:19;;;;;;;5.60;3.28;;;;;;;;;;5072893;28;20012;-49
2023/03/01 07:48:44;;;;;;;9.70;5.30;;;;;;;;;;5072947;28;20474;-49
2023/03/01 07:51:10;;;;;;;12.07;6.85;;;;;;;;;;5072795;28;20375;-50
2023/03/01 07:53:35;;;;;;;5.50;2.70;;;;;;;;;;5072915;28;20510;-49
2023/03/01 07:56:04;;;;;;;10.07;4.13;;;;;;;;;;5072725;28;20395;-49
2023/03/01 07:58:30;;;;;;;11.82;6.05;;;;;;;;;;5071130;28;20032;-49
2023/03/01 08:00:55;;;;;;;5.07;4.10;;;;;;;;;;5072394;28;20036;-49
2023/03/01 08:03:20;;;;;;;6.18;3.40;;;;;;;;;;5072306;28;20051;-49
2023/03/01 08:05:46;;;;;;;8.50;4.65;;;;;;;;;;5072362;28;20460;-49
2023/03/01 08:08:11;;;;;;;7.10;3.70;;;;;;;;;;5072223;28;20033;-49
2023/03/01 08:10:37;;;;;;;7.40;5.35;;;;;;;;;;5071994;28;20028;-49
2023/03/01 08:13:02;;;;;;;8.48;5.45;;;;;;;;;;5070559;28;20029;-49
2023/03/01 08:15:27;;;;;;;9.65;5.53;;;;;;;;;;5071830;28;20113;-49
2023/03/01 08:17:53;;;;;;;2.08;1.42;;;;;;;;;;5072203;28;20145;-49
2023/03/01 08:20:18;;;;;;;4.28;3.28;;;;;;;;;;5072211;28;20051;-49
2023/03/01 08:22:44;;;;;;;1.40;1.30;;;;;;;;;;5072145;28;20063;-49
2023/03/01 08:25:09;;;;;;;14.13;7.88;;;;;;;;;;5071903;28;20105;-49
2023/03/01 08:27:35;;;;;;;6.20;3.97;;;;;;;;;;5071963;28;20036;-50
2023/03/01 08:30:01;;;;;;;4.18;2.10;;;;;;;;;;5071710;28;20095;-49
2023/03/01 08:32:26;;;;;;;4.20;3.08;;;;;;;;;;5071715;28;20034;-49
2023/03/01 08:34:52;;;;;;;10.65;4.78;;;;;;;;;;5071399;28;20046;-49
2023/03/01 08:37:17;;;;;;;6.93;3.42;;;;;;;;;;5071653;28;20115;-49
2023/03/01 08:39:42;;;;;;;5.80;4.18;;;;;;;;;;5070378;28;20104;-49
2023/03/01 08:42:08;;;;;;;2.65;2.35;;;;;;;;;;5070339;28;20064;-50
2023/03/01 08:44:34;;;;;;;6.10;2.70;;;;;;;;;;5071908;28;20020;-49
2023/03/01 08:47:02;;;;;;;5.25;3.78;;;;;;;;;;5071542;28;20035;-50
2023/03/01 08:49:27;;;;;;;8.10;3.90;;;;;;;;;;5071379;28;20031;-49
2023/03/01 08:51:53;;;;;;;9.25;4.07;;;;;;;;;;5071428;28;20424;-50
2023/03/01 08:54:20;;;;;;;5.32;2.95;;;;;;;;;;5071410;28;20108;-49
2023/03/01 08:56:45;;;;;;;6.03;3.42;;;;;;;;;;5071336;28;20135;-49
2023/03/01 08:59:11;;;;;;;2.53;2.33;;;;;;;;;;5071505;28;20099;-49
2023/03/01 09:01:37;;;;;;;8.25;4.70;;;;;;;;;;5071085;28;20638;-50
2023/03/01 09:04:03;;;;;;;8.80;3.15;;;;;;;;;;5071202;28;20017;-49
2023/03/01 09:06:32;;;;;;;1.52;1.30;;;;;;;;;;5071102;28;20032;-49
2023/03/01 09:08:58;;;;;;;3.28;2.28;;;;;;;;;;5071466;28;20115;-49
2023/03/01 09:11:23;;;;;;;4.43;2.58;;;;;;;;;;5071247;28;20115;-49
2023/03/01 09:13:49;;;;;;;7.03;4.13;;;;;;;;;;5071192;28;20119;-49
2023/03/01 09:16:16;;;;;;;2.08;1.70;;;;;;;;;;5070831;28;20055;-50
2023/03/01 09:18:41;;;;;;;4.72;2.20;;;;;;;;;;5070953;28;20044;-49
2023/03/01 09:21:09;;;;;;;3.85;2.78;;;;;;;;;;5071203;28;20074;-50
2023/03/01 09:23:36;;;;;;;4.70;3.13;;;;;;;;;;5071208;28;20024;-49
2023/03/01 09:26:02;;;;;;;6.28;3.50;;;;;;;;;;5070530;28;20043;-49
2023/03/01 09:28:27;;;;;;;7.78;3.20;;;;;;;;;;5069582;28;20100;-50
2023/03/01 09:30:53;;;;;;;5.70;2.90;;;;;;;;;;5070747;28;20024;-49
2023/03/01 09:33:19;;;;;;;5.57;3.17;;;;;;;;;;5070779;28;20012;-50
2023/03/01 09:35:46;;;;;;;1.90;1.25;;;;;;;;;;5070523;28;20052;-49
2023/03/01 09:38:13;;;;;;;5.30;2.97;;;;;;;;;;5070768;28;20040;-50
2023/03/01 09:40:43;;;;;;;3.22;2.53;;;;;;;;;;5070714;28;20036;-49
2023/03/01 09:43:15;;;;;;;2.78;2.60;;;;;;;;;;5070763;28;20758;-49
2023/03/01 09:45:44;;;;;;;2.25;2.05;;;;;;;;;;5069378;28;20499;-50
2023/03/01 09:48:21;;;;;;;3.00;2.70;;;;;;;;;;5070561;28;20028;-49
2023/03/01 09:50:47;;;;;;;6.60;2.85;;;;;;;;;;5070708;28;20036;-49
2023/03/01 09:53:15;;;;;;;0.95;0.95;;;;;;;;;;5070499;28;20387;-49
2023/03/01 09:55:52;;;;;;;2.75;2.33;;;;;;;;;;5070740;28;20059;-49
2023/03/01 09:58:27;;;;;;;2.28;2.10;;;;;;;;;;5070718;28;20096;-50
2023/03/01 10:00:53;;;;;;;4.95;2.90;;;;;;;;;;5070506;28;20028;-49
2023/03/01 10:03:27;;;;;;;3.67;2.80;;;;;;;;;;5069103;28;20056;-49
2023/03/01 10:06:11;;;;;;;3.75;2.58;;;;;;;;;;5070491;28;20071;-49
2023/03/01 10:08:38;;;;;;;1.20;0.68;;;;;;;;;;5070963;28;20063;-54
2023/03/01 10:11:06;;;;;;;1.33;1.23;;;;;;;;;;5071198;28;20066;-51
2023/03/01 10:13:37;;;;;;;4.93;2.33;;;;;;;;;;5070878;28;20119;-51
2023/03/01 10:16:10;;;;;;;3.92;2.40;;;;;;;;;;5071002;28;20072;-51
2023/03/01 10:18:37;;;;;;;5.45;2.60;;;;;;;;;;5070895;28;20033;-52
2023/03/01 10:21:09;;;;;;;3.55;1.92;;;;;;;;;;5070963;28;20112;-51
2023/03/01 10:23:35;;;;;;;6.67;2.63;;;;;;;;;;5070866;28;20244;-51
2023/03/01 10:26:01;;;;;;;5.63;2.90;;;;;;;;;;5071070;28;20406;-51
2023/03/01 10:28:31;;;;;;;4.28;2.17;;;;;;;;;;5070729;28;20040;-51
2023/03/01 10:30:57;;;;;;;4.40;2.78;;;;;;;;;;5070878;28;20620;-51
2023/03/01 10:33:25;;;;;;;3.40;1.85;;;;;;;;;;5070770;28;20063;-51
2023/03/01 10:35:51;;;;;;;1.88;1.58;;;;;;;;;;5070602;28;20076;-51
2023/03/01 10:38:17;;;;;;;3.35;2.35;;;;;;;;;;5074039;28;20502;-50
2023/03/01 10:40:53;;;;;;;1.60;1.50;;;;;;;;;;5074886;28;20021;-51
2023/03/01 10:43:18;;;;;;;2.15;1.33;;;;;;;;;;5073089;28;20516;-51
2023/03/01 10:45:44;;;;;;;4.18;1.98;;;;;;;;;;5074567;28;20099;-51
2023/03/01 10:48:18;;;;;;;6.35;3.17;;;;;;;;;;5074679;28;20349;-50
2023/03/01 10:50:44;;;;;;;2.13;1.92;;;;;;;;;;5074390;28;20028;-51
2023/03/01 10:53:20;;;;;;;12.00;3.85;;;;;;;;;;5074560;28;20032;-51
2023/03/01 10:55:46;;;;;;;3.03;1.55;;;;;;;;;;5074311;28;20185;-50
2023/03/01 10:58:22;;;;;;;2.45;1.65;;;;;;;;;;5074188;28;20108;-51
2023/03/01 11:00:52;;;;;;;3.92;1.90;;;;;;;;;;5074271;28;20059;-51
2023/03/01 11:03:22;;;;;;;4.80;2.53;;;;;;;;;;5072771;28;20028;-50
2023/03/01 11:05:59;;;;;;;5.95;3.30;;;;;;;;;;5074194;28;20028;-51
2023/03/01 11:08:37;;;;;;;2.80;2.38;;;;;;;;;;5073992;28;20114;-51
2023/03/01 11:11:11;;;;;;;1.77;1.33;;;;;;;;;;5074043;28;20536;-51
2023/03/01 11:13:45;;;;;;;6.50;2.42;;;;;;;;;;5073960;28;20028;-51
2023/03/01 11:16:12;;;;;;;5.60;2.70;;;;;;;;;;5073890;28;20111;-51
2023/03/01 11:18:38;;;;;;;5.93;2.30;;;;;;;;;;5073721;28;20016;-50
2023/03/01 11:21:05;;;;;;;2.92;2.30;;;;;;;;;;5073834;28;20033;-52
2023/03/01 11:23:32;;;;;;;2.78;1.88;;;;;;;;;;5147163;22;20154;-49
2023/03/01 11:26:07;;;;;;;3.45;2.90;;;;;;;;;;5032675;28;20118;-49
2023/03/01 11:28:36;;;;;;;3.17;1.88;;;;;;;;;;5033794;28;20021;-49
2023/03/01 11:31:05;;;;;;;3.13;1.95;;;;;;;;;;5033832;28;20029;-50
2023/03/01 11:33:34;;;;;;;2.63;2.03;;;;;;;;;;5033728;28;20104;-50
2023/03/01 11:36:19;;;;;;;1.13;0.88;;;;;;;;;;5033653;28;20136;-49
2023/03/01 11:38:44;;;;;;;1.65;1.42;;;;;;;;;;5033980;28;20025;-49
2023/03/01 11:41:11;;;;;;;4.57;3.08;;;;;;;;;;5033619;28;20383;-50
2023/03/01 11:43:36;;;;;;;2.22;1.63;;;;;;;;;;5033488;28;20037;-49
2023/03/01 11:46:17;;;;;;;5.78;3.08;;;;;;;;;;5033713;28;20043;-50
2023/03/01 11:48:51;;;;;;;2.90;1.58;;;;;;;;;;5032711;28;20033;-50
2023/03/01 11:51:37;;;;;;;1.92;1.80;;;;;;;;;;5033292;28;20551;-50
2023/03/01 11:54:11;;;;;;;4.25;2.33;;;;;;;;;;5033344;28;20383;-49
2023/03/01 11:56:37;;;;;;;1.85;1.58;;;;;;;;;;5033298;28;20048;-50
2023/03/01 11:59:08;;;;;;;11.70;2.03;;;;;;;;;;5033298;28;20018;-50
2023/03/01 12:01:52;;;;;;;5.00;2.53;;;;;;;;;;5033244;28;20129;-49
2023/03/01 12:04:27;;;;;;;2.63;2.05;;;;;;;;;;5033041;28;20368;-49
2023/03/01 12:07:05;;;;;;;2.83;2.63;;;;;;;;;;5033216;28;20388;-50
2023/03/01 12:09:55;;;;;;;3.08;1.75;;;;;;;;;;5033073;28;20071;-49
2023/03/01 12:12:40;;;;;;;2.15;1.33;;;;;;;;;;5032984;28;20199;-49
2023/03/01 12:15:08;;;;;;;3.20;1.63;;;;;;;;;;5033158;28;20045;-49
2023/03/01 12:17:44;;;;;;;8.13;3.38;;;;;;;;;;5033192;28;20048;-49
2023/03/01 12:20:18;;;;;;;3.03;1.83;;;;;;;;;;5032827;28;20072;-49
2023/03/01 12:22:53;;;;;;;1.88;1.75;;;;;;;;;;5032814;28;20034;-49
2023/03/01 12:25:28;;;;;;;4.10;2.60;;;;;;;;;;5032519;28;20054;-49
2023/03/01 12:28:12;;;;;;;3.53;2.15;;;;;;;;;;5032757;28;20041;-49
2023/03/01 12:30:37;;;;;;;1.98;1.08;;;;;;;;;;5032647;28;20034;-49
2023/03/01 12:33:06;;;;;;;4.75;2.67;;;;;;;;;;5032508;28;20029;-49
2023/03/01 12:35:50;;;;;;;2.88;1.73;;;;;;;;;;5014734;28;20049;-49
2023/03/01 12:38:30;;;;;;;3.13;2.30;;;;;;;;;;5031191;28;20033;-49
2023/03/01 12:40:56;;;;;;;3.33;2.10;;;;;;;;;;5032460;28;20554;-49
2023/03/01 12:43:25;;;;;;;2.70;1.80;;;;;;;;;;5032583;28;20033;-49
2023/03/01 12:46:14;;;;;;;3.65;1.95;;;;;;;;;;5047747;28;20112;-49
2023/03/01 12:48:47;;;;;;;1.73;1.48;;;;;;;;;;5032336;28;20040;-49
2023/03/01 12:51:13;;;;;;;;;;;;;;;;;;5031499;28;20033;-49
2023/03/01 12:53:43;;;;;;;2.42;2.22;;;;;;;;;;5032316;28;20365;-49
2023/03/01 12:56:13;;;;;;;4.50;1.50;;;;;;;;;;5032075;28;20044;-49
2023/03/01 12:58:42;;;;;;;0.88;0.88;;;;;;;;;;5031039;28;20031;-48
2023/03/01 13:01:14;;;;;;;2.72;2.17;;;;;;;;;;5032097;28;20069;-48
2023/03/01 13:03:48;;;;;;;3.88;2.95;;;;;;;;;;5030737;28;20029;-49
2023/03/01 13:06:19;;;;;;;1.92;1.60;;;;;;;;;;5030708;28;20040;-49
2023/03/01 13:08:52;;;;;;;3.78;2.85;;;;;;;;;;5031994;28;20487;-49
2023/03/01 13:11:21;;;;;;;4.47;2.42;;;;;;;;;;5032411;28;20163;-49
2023/03/01 13:13:48;;;;;;;1.42;1.30;;;;;;;;;;5031904;28;20037;-49
2023/03/01 13:16:22;;;;;;;2.38;1.15;;;;;;;;;;5031985;28;20040;-49
2023/03/01 13:18:48;;;;;;;3.88;1.83;;;;;;;;;;5032131;28;20044;-49
2023/03/01 13:21:28;;;;;;;2.50;2.08;;;;;;;;;;5031743;28;20394;-49
2023/03/01 13:23:56;;;;;;;1.23;0.77;;;;;;;;;;5031512;28;20056;-49
2023/03/01 13:26:21;;;;;;;2.28;1.55;;;;;;;;;;5030452;28;20033;-49
2023/03/01 13:28:47;;;;;;;3.10;1.67;;;;;;;;;;5031781;28;20018;-49
2023/03/01 13:31:15;;;;;;;3.03;2.40;;;;;;;;;;5031529;28;20021;-49
2023/03/01 13:33:44;;;;;;;7.55;2.78;;;;;;;;;;5031648;28;20116;-49
2023/03/01 13:36:13;;;;;;;1.83;0.95;;;;;;;;;;5031570;28;20115;-49
2023/03/01 13:38:46;;;;;;;3.80;2.15;;;;;;;;;;5031822;28;20124;-49
2023/03/01 13:41:17;;;;;;;4.43;2.15;;;;;;;;;;5031473;28;20029;-49
2023/03/01 13:43:46;;;;;;;7.88;2.13;;;;;;;;;;5031569;28;20498;-49
2023/03/01 13:46:16;;;;;;;3.42;2.60;;;;;;;;;;5030222;28;20036;-49
2023/03/01 13:48:44;;;;;;;2.20;2.05;;;;;;;;;;5031492;28;20032;-49
2023/03/01 13:51:11;;;;;;;1.30;1.23;;;;;;;;;;5031416;28;20357;-49
2023/03/01 13:53:40;;;;;;;1.55;1.45;;;;;;;;;;5031094;28;20032;-48
2023/03/01 13:56:17;;;;;;;2.92;1.75;;;;;;;;;;5031299;28;20036;-49
2023/03/01 13:58:46;;;;;;;2.85;2.10;;;;;;;;;;5031386;28;20421;-49
2023/03/01 14:01:23;;;;;;;1.65;1.50;;;;;;;;;;5031358;28;20029;-50
2023/03/01 14:03:49;;;;;;;1.52;1.42;;;;;;;;;;5031559;28;20160;-49
2023/03/01 14:06:19;;;;;;;1.58;0.93;;;;;;;;;;5031133;28;20057;-49
2023/03/01 14:08:46;;;;;;;1.10;1.05;;;;;;;;;;5030039;28;20037;-49
2023/03/01 14:11:14;;;;;;;1.67;1.20;;;;;;;;;;5031250;28;20521;-49
2023/03/01 14:13:42;;;;;;;0.45;0.32;;;;;;;;;;5035231;28;20029;-49
2023/03/01 14:16:15;;;;;;;3.50;1.83;;;;;;;;;;5035207;28;20036;-49
2023/03/01 14:18:51;;;;;;;5.07;2.20;;;;;;;;;;5035183;28;20511;-49
2023/03/01 14:21:18;;;;;;;2.92;1.45;;;;;;;;;;5035002;28;20105;-50
2023/03/01 14:23:44;;;;;;;19.73;1.42;;;;;;;;;;5034994;28;20394;-49
2023/03/01 14:26:11;;;;;;;1.85;1.02;;;;;;;;;;5035060;28;20099;-49
2023/03/01 14:28:38;;;;;;;1.92;1.83;;;;;;;;;;5034941;28;20022;-49
2023/03/01 14:31:24;;;;;;;1.15;1.05;;;;;;;;;;5034963;28;20039;-50
2023/03/01 14:33:56;;;;;;;4.10;1.83;;;;;;;;;;5034801;28;20057;-50
2023/03/01 14:36:29;;;;;;;1.73;1.05;;;;;;;;;;5034937;28;20045;-50
2023/03/01 14:38:54;;;;;;;2.42;1.77;;;;;;;;;;5035178;28;20056;-50
2023/03/01 14:41:22;;;;;;;3.15;1.75;;;;;;;;;;5034690;28;20472;-49
2023/03/01 14:43:52;;;;;;;7.25;2.83;;;;;;;;;;5034631;28;20025;-49
2023/03/01 14:46:22;;;;;;;7.32;1.17;;;;;;;;;;5034663;28;20040;-49
2023/03/01 14:48:49;;;;;;;1.13;1.02;;;;;;;;;;5034888;28;20034;-49